Ponce de Leon, MO (65728)

8:03 PM CST on December 08, 2016 (GMT -0600)
Day Road | | Change Station

Elev 1273 ft 36.81 °N, 93.25 °W | Updated 4 seconds ago

Clear
Clear
21.9 °F
Feels Like 22 °F
N
3.0
Wind Variable Wind from West
Gusts 3.5 mph

Today
High -- | Low -- °F
--% Chance of Precip.
Yesterday
High -- | Low -- °F
Precip. -- in
Pressure 30.60 in
Visibility 10.0 miles
Clouds Clear
Windchill 22 °F
Dew Point 15 °F
Humidity 74%
Rainfall 0.00 in
Snow Depth Not available.
7:14 AM 4:56 PM
Waxing Gibbous, 69% visible
METAR KFWB 090135Z AUTO 30006KT 10SM CLR M05/M11 A3060 RMK AO2
Pressure 30.60 in
Visibility 10.0 miles
Clouds Clear
Windchill 22 °F
Dew Point 15 °F
Humidity 74%
Rainfall 0.00 in
Snow Depth Not available.
7:14 AM 4:56 PM
Waxing Gibbous, 69% visible
METAR KFWB 090135Z AUTO 30006KT 10SM CLR M05/M11 A3060 RMK AO2

10-Day Weather Forecast

Almanac

Astronomy

Dec. 08, 2016 Rise Set
Actual Time
Civil Twilight
Nautical Twilight
Astronomical Twilight
Moon
Length of Visible Light
Length of Day
Tomorrow will be .
, % of the Moon is Illuminated

Today's Extremes

State Highs State Lows

Community

WunderPhotos

Upload Photos

1,956,351 photos uploaded!

WunderBlog® & News

Nearby

Air Quality

  Air Quality AQ Index Pollutant
Not available.

Snow Depth

Station Depth Elevation

Earthquake Activity

City Distance Mag. Time & Date
Minimum magnitude displayed is 2.5.

Coastal Water Temperatures

Place Temperature

Stations

Nearby Weather Stations

Station Location Temp. Windchill Dew Point Humidity Wind Precip. Elev Updated Type
                   

Watches & Warnings

There are currently no watches in effect.